Time;durP1;ratioP1;P1;durP2;ratioP2;P2;SDS_P1;SDS_P2;PMS_P1;PMS_P2;Temp;Humidity;BMP_temperature;BMP_pressure;BME280_temperature;BME280_humidity;BME280_pressure;Samples;Min_cycle;Max_cycle;Signal;HPM_P1;HPM_P2
2022/12/11 00:03:19;;;;;;;22.67;16.60;;;;;;;-0.96;53.44;99366.13;10409526;28;20239;-63
2022/12/11 00:08:21;;;;;;;21.40;16.23;;;;;;;-1.33;54.45;99379.47;10412595;28;20358;-63
2022/12/11 00:13:23;;;;;;;22.90;14.73;;;;;;;-1.46;54.24;99383.97;10441138;28;20239;-66
2022/12/11 00:18:25;;;;;;;20.73;15.13;;;;;;;-2.49;55.63;99387.16;10418414;28;20941;-66
2022/12/11 00:23:27;;;;;;;22.27;15.90;;;;;;;-1.55;55.13;99369.78;10454678;28;20247;-65
2022/12/11 00:28:29;;;;;;;21.70;15.73;;;;;;;-1.41;54.84;99374.81;10451241;28;20313;-64
2022/12/11 00:33:30;;;;;;;21.23;15.57;;;;;;;-1.24;53.62;99372.69;10422395;28;20246;-66
2022/12/11 00:38:32;;;;;;;21.50;15.77;;;;;;;-1.34;53.73;99380.44;10455595;28;20657;-62
2022/12/11 00:43:34;;;;;;;21.43;16.07;;;;;;;-1.21;53.22;99377.69;10446790;28;20270;-65
2022/12/11 00:48:36;;;;;;;23.13;16.47;;;;;;;-1.60;53.94;99383.25;10456604;28;20953;-65
2022/12/11 00:53:38;;;;;;;22.17;15.63;;;;;;;-1.47;53.75;99392.81;10454875;28;20231;-63
2022/12/11 00:58:40;;;;;;;23.07;16.73;;;;;;;-1.78;53.64;99406.44;10451414;28;20239;-63
2022/12/11 01:03:42;;;;;;;21.13;14.93;;;;;;;-2.18;54.68;99390.19;10453934;28;20244;-66
2022/12/11 01:08:45;;;;;;;22.90;16.30;;;;;;;-2.67;56.16;99408.47;10452455;28;20235;-62
2022/12/11 01:13:46;;;;;;;22.90;15.50;;;;;;;-3.69;57.41;99405.81;10453329;28;20235;-63
2022/12/11 01:18:48;;;;;;;22.20;15.30;;;;;;;-3.67;58.71;99373.41;10452184;28;20242;-62
2022/12/11 01:23:50;;;;;;;24.07;16.17;;;;;;;-3.16;58.32;99362.09;10448041;28;20241;-63
2022/12/11 01:28:52;;;;;;;27.17;16.77;;;;;;;-3.85;58.13;99372.00;10454406;28;20277;-61
2022/12/11 01:33:54;;;;;;;24.43;16.67;;;;;;;-2.95;57.02;99359.78;10451142;28;20245;-63
2022/12/11 01:38:56;;;;;;;24.43;16.63;;;;;;;-3.67;57.87;99367.31;10454317;28;20823;-62
2022/12/11 01:44:30;;;;;;;25.33;15.93;;;;;;;-4.71;61.54;99324.34;10449324;28;20242;-61
2022/12/11 01:49:32;;;;;;;28.53;19.07;;;;;;;-4.40;60.56;99337.22;10451067;28;20243;-61
2022/12/11 01:54:34;;;;;;;27.30;16.93;;;;;;;-4.16;60.23;99342.66;10455198;28;20237;-62
2022/12/11 01:59:39;;;;;;;26.73;18.10;;;;;;;-4.24;59.51;99358.81;10443217;28;20249;-62
2022/12/11 02:04:41;;;;;;;28.13;17.23;;;;;;;-5.49;61.12;99384.78;10445899;28;20325;-63
2022/12/11 02:09:45;;;;;;;30.30;17.57;;;;;;;-4.46;60.23;99359.38;10450596;28;20754;-62
2022/12/11 02:14:52;;;;;;;31.83;19.77;;;;;;;-3.67;59.54;99333.31;10446219;28;20316;-63
2022/12/11 02:20:14;;;;;;;31.67;19.47;;;;;;;-2.88;57.53;99326.16;10455090;28;20253;-62
2022/12/11 02:25:28;;;;;;;30.80;20.53;;;;;;;-3.48;57.24;99367.75;10451301;28;20334;-62
2022/12/11 02:30:33;;;;;;;33.00;18.67;;;;;;;-3.01;57.45;99335.81;10449444;28;20234;-62
2022/12/11 02:35:41;;;;;;;31.37;19.27;;;;;;;-3.54;58.70;99331.53;10452951;28;20226;-63
2022/12/11 02:40:45;;;;;;;31.50;18.33;;;;;;;-4.84;61.47;99353.94;10447447;28;20262;-63
2022/12/11 02:45:49;;;;;;;30.00;17.07;;;;;;;-5.43;64.40;99289.69;10448863;28;20782;-62
2022/12/11 02:50:55;;;;;;;33.13;20.03;;;;;;;-5.30;64.91;99269.75;10451248;28;20242;-62
2022/12/11 02:56:23;;;;;;;26.27;15.17;;;;;;;-5.86;66.13;99284.47;10455540;28;20234;-63
2022/12/11 03:01:26;;;;;;;29.80;18.53;;;;;;;-4.88;64.71;99240.25;10443865;28;20287;-63
2022/12/11 03:06:36;;;;;;;34.13;19.30;;;;;;;-5.12;65.10;99259.97;10449064;28;20246;-62
2022/12/11 03:11:37;;;;;;;16.47;12.23;;;;;;;-5.47;65.43;99290.81;10453582;28;20262;-61
2022/12/11 03:17:03;;;;;;;27.27;16.37;;;;;;;-5.51;66.36;99282.34;10449883;28;20712;-62
2022/12/11 03:22:17;;;;;;;30.27;16.87;;;;;;;-4.86;65.99;99222.69;10440114;28;20264;-62
2022/12/11 03:27:25;;;;;;;36.87;21.97;;;;;;;-3.60;63.50;99190.72;10449437;28;20237;-64
2022/12/11 03:32:41;;;;;;;37.63;22.67;;;;;;;-4.13;63.06;99247.53;10448677;28;20235;-65
2022/12/11 03:37:46;;;;;;;12.40;9.10;;;;;;;-5.30;66.30;99254.09;10456132;28;20238;-64
2022/12/11 03:42:52;;;;;;;33.20;19.50;;;;;;;-3.23;62.06;99220.38;10445792;28;20241;-64
2022/12/11 03:47:56;;;;;;;28.73;17.87;;;;;;;-4.37;63.13;99263.91;10456140;28;20238;-64
2022/12/11 03:53:00;;;;;;;36.73;22.53;;;;;;;-3.53;62.29;99241.66;10460913;28;20295;-65
2022/12/11 03:58:02;;;;;;;34.20;21.40;;;;;;;-4.09;63.82;99242.00;10452024;28;20242;-64
2022/12/11 04:03:12;;;;;;;35.13;20.93;;;;;;;-4.21;62.35;99274.16;10458360;28;20286;-65
2022/12/11 04:08:16;;;;;;;18.87;12.37;;;;;;;-5.18;65.66;99296.03;10453972;28;20747;-66
2022/12/11 04:13:18;;;;;;;36.83;21.10;;;;;;;-4.18;64.50;99227.78;10467856;28;20237;-65
2022/12/11 04:29:00;;;;;;;34.80;21.57;;;;;;;-3.41;61.69;99219.88;10483243;28;20344;-65
2022/12/11 04:34:02;;;;;;;39.80;23.00;;;;;;;-2.54;59.02;99224.19;10465366;28;21120;-65
2022/12/11 04:39:04;;;;;;;34.80;21.63;;;;;;;-2.95;59.87;99243.75;10485915;28;20237;-65
2022/12/11 04:44:07;;;;;;;36.53;19.87;;;;;;;-3.46;61.29;99250.75;10484706;28;20238;-66
2022/12/11 04:49:09;;;;;;;40.43;21.73;;;;;;;-3.76;61.87;99263.34;10461670;28;20239;-65
2022/12/11 04:54:10;;;;;;;28.17;16.43;;;;;;;-4.56;64.44;99257.25;10484870;28;20250;-66
2022/12/11 04:59:12;;;;;;;35.20;20.47;;;;;;;-4.26;64.29;99243.13;10466968;28;20288;-65
2022/12/11 05:04:13;;;;;;;29.10;18.07;;;;;;;-4.17;62.66;99279.09;10474349;28;20241;-66
2022/12/11 05:09:15;;;;;;;21.20;13.20;;;;;;;-4.70;63.63;99296.50;10482244;28;20833;-65
2022/12/11 05:14:17;;;;;;;36.40;21.17;;;;;;;-3.25;62.48;99218.78;10461065;28;21435;-65
2022/12/11 05:19:19;;;;;;;34.17;19.93;;;;;;;-4.60;63.85;99281.91;10485014;28;20245;-65
2022/12/11 05:24:21;;;;;;;22.80;14.77;;;;;;;-4.59;64.07;99262.69;10471988;28;20901;-66
2022/12/11 05:29:22;;;;;;;34.97;21.57;;;;;;;-3.23;62.08;99188.13;10474773;28;20239;-66
2022/12/11 05:34:24;;;;;;;33.17;20.37;;;;;;;-3.11;60.97;99202.13;10461285;28;20295;-65
2022/12/11 05:39:25;;;;;;;37.97;21.63;;;;;;;-3.53;61.80;99207.66;10467152;28;20234;-65
2022/12/11 05:44:27;;;;;;;33.60;20.10;;;;;;;-3.02;59.96;99201.47;10482192;28;20313;-65
2022/12/11 05:49:29;;;;;;;38.40;22.00;;;;;;;-3.89;62.06;99240.66;10468504;28;20257;-65
2022/12/11 05:54:31;;;;;;;36.30;22.17;;;;;;;-2.86;60.79;99186.31;10467933;28;20720;-66
2022/12/11 05:59:33;;;;;;;31.77;19.10;;;;;;;-4.49;64.10;99228.13;10478342;28;20844;-66
2022/12/11 06:04:35;;;;;;;36.03;20.87;;;;;;;-2.84;59.52;99186.22;10459576;28;20311;-65
2022/12/11 06:09:36;;;;;;;34.87;19.97;;;;;;;-2.93;59.41;99207.81;10476992;28;20257;-65
2022/12/11 06:14:39;;;;;;;34.57;19.53;;;;;;;-2.96;59.74;99218.53;10472357;28;20964;-64
2022/12/11 06:19:41;;;;;;;34.87;19.93;;;;;;;-2.25;58.71;99181.88;10464727;28;20261;-64
2022/12/11 06:24:43;;;;;;;32.00;18.37;;;;;;;-2.15;58.45;99191.53;10472790;28;20238;-65
2022/12/11 06:29:45;;;;;;;31.97;19.37;;;;;;;-1.44;57.04;99164.25;10459753;28;20276;-64
2022/12/11 06:34:47;;;;;;;36.43;19.93;;;;;;;-1.84;57.64;99183.13;10476660;28;20250;-64
2022/12/11 06:39:48;;;;;;;38.27;19.83;;;;;;;-2.45;58.40;99212.22;10470725;28;20923;-64
2022/12/11 06:44:50;;;;;;;36.00;19.93;;;;;;;-2.01;57.70;99206.22;10462032;28;20235;-63
2022/12/11 06:49:52;;;;;;;32.97;18.50;;;;;;;-2.69;59.24;99242.72;10474928;28;20696;-64
2022/12/11 06:54:55;;;;;;;32.27;18.67;;;;;;;-2.14;58.41;99216.81;10458453;28;20239;-64
2022/12/11 06:59:56;;;;;;;30.43;18.57;;;;;;;-2.50;58.80;99244.81;10470496;28;20264;-65
2022/12/11 07:04:58;;;;;;;33.27;18.97;;;;;;;-2.73;59.49;99258.75;10473428;28;20231;-65
2022/12/11 07:09:59;;;;;;;31.77;19.33;;;;;;;-2.76;59.35;99251.97;10457647;28;20323;-65
2022/12/11 07:15:09;;;;;;;35.30;18.87;;;;;;;-2.07;58.55;99225.06;10472704;28;20352;-65
2022/12/11 07:20:11;;;;;;;42.83;24.83;;;;;;;-1.74;56.94;99221.63;10462173;28;20268;-65
2022/12/11 07:25:13;;;;;;;33.67;18.43;;;;;;;-2.55;59.50;99267.06;10483618;28;20700;-64
2022/12/11 07:30:15;;;;;;;35.47;18.70;;;;;;;-4.37;62.75;99309.13;10483457;28;20233;-65
2022/12/11 07:35:17;;;;;;;34.27;20.27;;;;;;;-2.48;59.28;99260.41;10460796;28;20238;-65
2022/12/11 07:40:18;;;;;;;37.77;20.53;;;;;;;-3.24;61.06;99293.75;10485705;28;20267;-64
2022/12/11 07:45:20;;;;;;;33.87;20.73;;;;;;;-3.23;60.84;99295.44;10471141;28;20284;-65
2022/12/11 07:50:22;;;;;;;37.80;21.73;;;;;;;-2.91;59.81;99276.66;10486016;28;20235;-65
2022/12/11 07:55:23;;;;;;;39.40;20.80;;;;;;;-2.14;59.26;99243.03;10482335;28;20291;-65
2022/12/11 08:00:25;;;;;;;34.93;19.93;;;;;;;-2.47;59.61;99249.00;10445320;28;20321;-65
2022/12/11 08:05:27;;;;;;;32.00;19.40;;;;;;;-1.86;58.61;99242.72;10475361;28;20334;-65
2022/12/11 08:10:28;;;;;;;34.30;21.00;;;;;;;-2.53;59.62;99267.78;10468957;28;20830;-65
2022/12/11 08:15:30;;;;;;;29.50;18.27;;;;;;;-2.27;59.13;99257.16;10476561;28;20219;-65
2022/12/11 08:20:32;;;;;;;36.73;21.70;;;;;;;-2.48;58.58;99276.13;10481889;28;20288;-66
2022/12/11 08:25:34;;;;;;;43.23;23.57;;;;;;;-3.10;60.03;99301.47;10466188;28;20239;-65
2022/12/11 08:30:38;;;;;;;50.80;27.13;;;;;;;-2.30;59.70;99269.53;10489424;28;20711;-65
2022/12/11 08:35:42;;;;;;;34.70;19.80;;;;;;;-2.09;58.92;99254.94;10473070;28;20607;-65
2022/12/11 08:40:44;;;;;;;33.13;18.40;;;;;;;-1.90;57.39;99262.25;10481754;28;20238;-66
2022/12/11 08:45:46;;;;;;;34.63;20.90;;;;;;;-2.22;58.38;99271.59;10479006;28;20242;-66
2022/12/11 08:50:47;;;;;;;36.13;19.73;;;;;;;-1.80;58.16;99257.97;10465544;28;20239;-66
2022/12/11 08:55:52;;;;;;;34.07;20.43;;;;;;;-2.14;58.56;99271.03;10489928;28;20226;-66
2022/12/11 09:00:53;;;;;;;35.53;19.67;;;;;;;-1.47;57.51;99235.34;10469487;28;20257;-66
2022/12/11 09:05:55;;;;;;;32.47;19.80;;;;;;;-2.73;58.68;99304.13;10478087;28;20326;-65
2022/12/11 09:11:02;;;;;;;35.90;20.60;;;;;;;-1.88;58.34;99269.06;10485983;28;20623;-63
2022/12/11 09:16:06;;;;;;;36.97;21.73;;;;;;;-1.64;57.55;99260.28;10458530;28;20231;-65
2022/12/11 09:21:12;;;;;;;32.87;20.57;;;;;;;-2.76;59.71;99296.50;10484126;28;20242;-64
2022/12/11 09:26:16;;;;;;;37.50;22.07;;;;;;;-2.36;59.48;99284.88;10476664;28;20242;-64
2022/12/11 09:31:38;;;;;;;30.30;18.43;;;;;;;-3.41;61.86;99323.69;10419981;22;20738;-34
2022/12/11 09:36:41;;;;;;;46.07;26.77;;;;;;;-2.83;61.65;99297.03;10371098;28;20249;-34
2022/12/11 09:41:57;;;;;;;43.93;23.87;;;;;;;-2.00;59.58;99243.75;10362107;28;20240;-34
2022/12/11 09:46:59;;;;;;;41.60;23.03;;;;;;;-1.58;58.42;99234.41;10375098;28;20233;-34
2022/12/11 09:52:17;;;;;;;44.50;24.70;;;;;;;-2.00;58.87;99254.25;10368408;28;20803;-34
2022/12/11 09:58:00;;;;;;;43.50;25.70;;;;;;;-2.55;60.65;99281.00;10367479;28;20259;-35
2022/12/11 10:03:14;;;;;;;42.67;26.27;;;;;;;-2.87;61.27;99271.06;10274710;28;20229;-34
2022/12/11 10:08:28;;;;;;;44.73;24.33;;;;;;;-1.77;59.30;99218.41;10354408;28;20243;-34
2022/12/11 10:13:44;;;;;;;45.03;25.50;;;;;;;-2.11;59.68;99237.53;10369570;28;20243;-34
2022/12/11 10:18:47;;;;;;;45.43;26.33;;;;;;;-1.37;59.19;99184.63;10352473;28;20303;-34
2022/12/11 10:23:59;;;;;;;51.23;27.17;;;;;;;-1.83;59.34;99224.13;10371648;28;20600;-34
2022/12/11 10:29:01;;;;;;;44.03;23.17;;;;;;;-2.16;59.53;99220.50;10370994;28;20530;-34
2022/12/11 10:34:13;;;;;;;52.10;27.57;;;;;;;-1.07;58.66;99169.19;10355260;28;20244;-34
2022/12/11 10:39:17;;;;;;;48.83;27.13;;;;;;;-1.42;58.41;99175.44;10359508;28;20265;-35
2022/12/11 10:44:28;;;;;;;38.97;24.03;;;;;;;-2.34;59.63;99230.56;10350067;28;20248;-34
2022/12/11 10:49:32;;;;;;;49.17;26.70;;;;;;;-1.65;58.59;99193.00;10363098;28;20242;-34
2022/12/11 10:54:41;;;;;;;42.60;24.30;;;;;;;-2.19;59.81;99213.72;10369073;28;20235;-34
2022/12/11 10:59:42;;;;;;;47.60;26.83;;;;;;;-0.66;57.25;99138.66;10343168;28;20268;-34
2022/12/11 11:06:19;;;;;;;44.80;26.20;;;;;;;-2.19;61.57;99181.41;10450277;27;20453;-67
2022/12/11 11:11:25;;;;;;;45.47;27.27;;;;;;;-2.78;62.38;99200.63;10306189;28;20265;-66
2022/12/11 11:16:28;;;;;;;44.37;26.73;;;;;;;-2.74;61.58;99197.69;10297097;28;20312;-67
2022/12/11 11:21:31;;;;;;;44.77;26.23;;;;;;;-1.74;60.07;99152.59;10297358;28;20272;-67
2022/12/11 11:26:33;;;;;;;42.87;27.20;;;;;;;-2.23;60.64;99175.56;10327159;28;20289;-66
2022/12/11 11:31:55;;;;;;;46.67;29.57;;;;;;;-1.90;59.98;99155.56;10294760;28;20262;-67
2022/12/11 11:37:04;;;;;;;42.60;27.67;;;;;;;-1.73;59.43;99149.00;10289599;28;20245;-67
2022/12/11 11:42:29;;;;;;;48.07;28.57;;;;;;;-2.10;59.16;99175.47;10317722;28;20227;-75
2022/12/11 11:47:40;;;;;;;52.53;29.47;;;;;;;-2.39;60.31;99175.91;10296163;28;20858;-69
2022/12/11 11:52:54;;;;;;;42.10;25.03;;;;;;;-1.80;60.17;99151.28;10331742;28;20752;-66
2022/12/11 11:58:04;;;;;;;40.73;26.97;;;;;;;-1.97;59.34;99159.59;10334087;28;20234;-66
2022/12/11 12:03:17;;;;;;;44.73;28.10;;;;;;;-1.55;58.34;99137.06;10333042;28;20885;-66
2022/12/11 12:08:24;;;;;;;45.97;27.20;;;;;;;-0.87;57.62;99105.34;10309525;28;20248;-74
2022/12/11 12:13:52;;;;;;;40.40;25.27;;;;;;;-1.60;59.14;99135.75;10281101;28;21761;-77
2022/12/11 12:18:56;;;;;;;38.57;23.80;;;;;;;-1.55;59.17;99123.94;10307745;28;20235;-68
2022/12/11 12:24:01;;;;;;;45.33;28.63;;;;;;;-1.24;58.18;99131.97;10308532;28;20242;-74
2022/12/11 12:29:24;;;;;;;40.53;24.43;;;;;;;-1.50;57.54;99156.84;10306249;28;20783;-72
2022/12/11 12:35:04;;;;;;;37.37;23.23;;;;;;;-0.81;56.89;99120.56;10299045;28;20231;-70
2022/12/11 12:40:17;;;;;;;37.80;25.13;;;;;;;-0.75;57.48;99105.28;10298804;28;20238;-75
2022/12/11 12:45:28;;;;;;;37.83;23.03;;;;;;;-0.74;56.89;99114.81;10312334;28;20295;-73
2022/12/11 12:50:37;;;;;;;34.20;23.33;;;;;;;-0.65;57.29;99104.38;10290676;28;20664;-74
2022/12/11 12:55:39;;;;;;;37.87;23.33;;;;;;;-0.33;56.38;99098.25;10295995;28;20249;-69
2022/12/11 13:00:42;;;;;;;38.03;24.07;;;;;;;-1.12;57.01;99145.09;10293420;28;21426;-69
2022/12/11 13:06:27;;;;;;;35.13;23.17;;;;;;;-0.50;56.08;99119.84;10306604;28;20236;-70
2022/12/11 13:11:33;;;;;;;32.73;22.33;;;;;;;-0.86;56.65;99129.81;10291915;28;20772;-69
2022/12/11 13:16:38;;;;;;;31.50;21.73;;;;;;;-1.20;58.15;99154.38;10299997;28;20239;-68
2022/12/11 13:21:39;;;;;;;33.53;21.23;;;;;;;-0.30;56.12;99115.53;10300690;28;20244;-70
2022/12/11 13:26:41;;;;;;;29.60;20.67;;;;;;;-0.32;55.64;99130.63;10296256;28;20236;-72
2022/12/11 13:31:44;;;;;;;32.57;19.77;;;;;;;-2.12;59.07;99217.53;10302706;28;20238;-72
2022/12/11 13:36:52;;;;;;;30.50;19.60;;;;;;;-2.56;60.72;99229.56;10317609;28;20334;-72
2022/12/11 13:42:00;;;;;;;28.83;20.40;;;;;;;-0.11;55.64;99113.00;10323986;28;20667;-76
2022/12/11 13:47:03;;;;;;;31.73;21.63;;;;;;;-0.80;56.69;99160.84;10292342;28;20234;-69
2022/12/11 13:52:06;;;;;;;29.77;21.17;;;;;;;0.15;55.16;99130.16;10293394;28;20246;-69
2022/12/11 13:57:07;;;;;;;30.57;21.40;;;;;;;-1.23;57.14;99195.81;10296619;28;20912;-73
2022/12/11 14:02:18;;;;;;;33.10;21.83;;;;;;;-0.43;55.88;99156.00;10278862;28;20235;-70
2022/12/11 14:07:27;;;;;;;31.03;21.40;;;;;;;-0.80;56.34;99187.94;10298882;28;20248;-70
2022/12/11 14:12:29;;;;;;;28.07;19.73;;;;;;;-1.13;55.86;99211.69;10299262;28;20235;-71
2022/12/11 14:17:34;;;;;;;28.63;19.43;;;;;;;-0.64;56.12;99192.78;10302878;28;20233;-72
2022/12/11 14:22:35;;;;;;;27.73;19.53;;;;;;;-1.42;57.27;99236.66;10297047;28;20751;-73
2022/12/11 14:27:49;;;;;;;28.70;18.97;;;;;;;-1.66;57.86;99252.53;10304163;28;20813;-72
2022/12/11 14:32:55;;;;;;;29.87;20.43;;;;;;;-1.31;56.43;99220.06;10294932;28;20358;-72
2022/12/11 14:38:01;;;;;;;29.47;19.10;;;;;;;-0.25;55.19;99172.06;10304365;28;20233;-74
2022/12/11 14:43:21;;;;;;;28.80;20.50;;;;;;;-1.20;57.06;99235.78;10310381;28;20239;-76
2022/12/11 14:48:37;;;;;;;27.27;18.50;;;;;;;-1.17;56.28;99226.84;10310192;28;20241;-74
2022/12/11 14:53:45;;;;;;;25.87;18.33;;;;;;;-0.68;55.69;99201.88;10305390;28;20608;-72
2022/12/11 14:58:58;;;;;;;28.53;18.97;;;;;;;-0.91;56.18;99232.63;10304758;28;20308;-72
2022/12/11 15:04:26;;;;;;;37.33;23.90;;;;;;;-0.90;56.87;99244.00;10301803;28;20710;-67
2022/12/11 15:09:36;;;;;;;30.30;20.40;;;;;;;-0.94;56.49;99242.53;10300706;28;20291;-67
2022/12/11 15:14:59;;;;;;;27.20;19.23;;;;;;;-1.25;56.35;99258.13;10304766;28;20235;-71
2022/12/11 15:20:24;;;;;;;30.87;20.47;;;;;;;-0.54;55.81;99224.41;10333198;28;20238;-74
2022/12/11 15:25:28;;;;;;;25.70;19.03;;;;;;;-1.68;56.91;99272.78;10302687;28;20854;-74
2022/12/11 15:30:33;;;;;;;28.50;19.23;;;;;;;-2.24;59.42;99291.00;10296452;28;20238;-72
2022/12/11 15:40:47;;;;;;;26.83;19.73;;;;;;;-1.65;57.22;99269.09;10267007;28;20762;-36
2022/12/11 15:45:49;;;;;;;30.40;19.70;;;;;;;-1.13;56.59;99245.81;10261508;28;20244;-35
2022/12/11 15:50:51;;;;;;;27.53;19.33;;;;;;;-0.93;55.59;99231.91;10267092;28;20243;-35
2022/12/11 15:55:53;;;;;;;26.13;18.50;;;;;;;-0.47;55.10;99225.59;10276339;28;20734;-35
2022/12/11 16:00:56;;;;;;;34.03;21.17;;;;;;;-1.10;55.77;99253.44;10275610;28;20733;-36
2022/12/11 16:05:58;;;;;;;31.67;21.03;;;;;;;-0.53;55.19;99227.91;10281899;28;20249;-35
2022/12/11 16:11:00;;;;;;;29.13;19.80;;;;;;;-1.21;56.38;99252.50;10261208;28;20314;-35
2022/12/11 16:16:01;;;;;;;29.13;19.70;;;;;;;-0.73;55.66;99246.06;10271178;28;20534;-36
2022/12/11 16:21:05;;;;;;;29.17;20.23;;;;;;;-0.54;55.13;99247.25;10268524;28;20611;-37
2022/12/11 16:26:08;;;;;;;29.60;19.23;;;;;;;-2.64;59.38;99335.84;10257619;28;20684;-36
2022/12/11 16:31:11;;;;;;;29.70;20.13;;;;;;;-0.48;56.03;99226.53;10265029;28;20234;-35
2022/12/11 16:36:15;;;;;;;31.37;20.93;;;;;;;-2.43;59.70;99312.50;10256907;28;20238;-37
2022/12/11 16:41:17;;;;;;;27.97;18.93;;;;;;;-1.36;58.16;99254.56;10267982;28;20246;-36
2022/12/11 16:46:20;;;;;;;29.10;19.13;;;;;;;-2.30;58.93;99302.78;10268061;28;20297;-35
2022/12/11 16:51:23;;;;;;;26.10;19.43;;;;;;;-2.33;58.63;99313.50;10257704;28;20685;-37
2022/12/11 16:56:25;;;;;;;30.83;19.27;;;;;;;-1.77;58.98;99266.47;10259288;28;20235;-38
2022/12/11 17:01:27;;;;;;;26.93;16.77;;;;;;;-3.49;61.14;99312.94;10264828;28;20267;-37
2022/12/11 17:06:29;;;;;;;31.50;20.17;;;;;;;-1.52;57.97;99248.00;10260223;28;20255;-35
2022/12/11 17:11:31;;;;;;;29.17;19.40;;;;;;;-0.59;56.28;99186.31;10231176;28;20242;-35
2022/12/11 17:16:32;;;;;;;31.80;22.83;;;;;;;-1.35;57.44;99229.13;10238354;28;20261;-36
2022/12/11 17:21:34;;;;;;;32.97;21.03;;;;;;;-0.89;56.28;99191.31;10250561;28;20243;-37
2022/12/11 17:26:37;;;;;;;31.63;20.93;;;;;;;-1.14;56.41;99208.22;10250151;28;20615;-35
2022/12/11 17:31:39;;;;;;;31.27;20.73;;;;;;;-1.39;56.96;99222.47;10243384;28;20783;-35
2022/12/11 17:36:41;;;;;;;31.50;19.47;;;;;;;-3.14;59.90;99281.69;10254746;28;20318;-36
2022/12/11 17:41:43;;;;;;;31.67;22.30;;;;;;;-1.53;57.48;99214.81;10263349;28;20282;-37
2022/12/11 17:46:45;;;;;;;28.87;19.73;;;;;;;-2.18;57.74;99251.25;10255835;28;20311;-36
2022/12/11 17:51:47;;;;;;;32.63;21.03;;;;;;;-0.63;54.69;99183.09;10264718;28;20246;-36
2022/12/11 17:56:49;;;;;;;37.50;23.90;;;;;;;-1.81;55.94;99235.34;10244107;28;20239;-38
2022/12/11 18:01:51;;;;;;;29.27;17.23;;;;;;;-3.97;62.28;99256.84;10236031;28;20227;-39
2022/12/11 18:06:52;;;;;;;32.17;20.17;;;;;;;-3.36;61.34;99255.38;10237682;28;20245;-36
2022/12/11 18:11:54;;;;;;;35.40;21.03;;;;;;;-1.45;56.50;99187.00;10236306;28;20265;-36
2022/12/11 18:16:56;;;;;;;37.10;24.00;;;;;;;-1.22;56.03;99184.38;10255257;28;20867;-35
2022/12/11 18:21:58;;;;;;;34.47;23.13;;;;;;;-1.27;55.79;99194.41;10251079;28;20238;-36
2022/12/11 18:26:59;;;;;;;37.30;24.00;;;;;;;-1.42;55.30;99202.53;10247592;28;20641;-37
2022/12/11 18:32:02;;;;;;;37.97;24.20;;;;;;;-1.86;56.66;99237.47;10250723;28;20254;-35
2022/12/11 18:37:03;;;;;;;47.50;30.13;;;;;;;-1.09;55.64;99195.56;10251132;28;20232;-36
2022/12/11 18:42:05;;;;;;;40.87;27.07;;;;;;;-0.86;54.21;99198.09;10253415;28;20235;-36
2022/12/11 18:47:27;;;;;;;42.43;28.60;;;;;;;-0.74;54.25;99201.53;10217270;28;20334;-37
2022/12/11 18:52:29;;;;;;;47.47;29.57;;;;;;;-1.24;55.26;99231.75;10196968;28;20256;-36
2022/12/11 18:57:31;;;;;;;45.53;28.30;;;;;;;-1.51;55.91;99244.41;10205165;28;20246;-38
2022/12/11 19:02:34;;;;;;;35.50;25.23;;;;;;;-2.42;57.12;99280.94;10202191;28;20279;-38
2022/12/11 19:07:36;;;;;;;33.67;22.73;;;;;;;-1.24;56.06;99246.69;10203414;28;20246;-36
2022/12/11 19:12:37;;;;;;;39.00;25.83;;;;;;;-1.79;57.14;99267.53;10200856;28;20239;-37
2022/12/11 19:17:41;;;;;;;51.40;30.20;;;;;;;-2.12;56.88;99293.56;10200737;28;20801;-37
2022/12/11 19:22:44;;;;;;;36.57;24.73;;;;;;;-2.34;58.34;99291.69;10202260;28;20894;-37
2022/12/11 19:27:46;;;;;;;34.57;23.03;;;;;;;-1.80;57.33;99260.59;10209793;28;20231;-36
2022/12/11 19:32:48;;;;;;;42.97;24.13;;;;;;;-1.93;57.12;99260.72;10212174;28;20258;-41
2022/12/11 19:37:49;;;;;;;39.90;24.63;;;;;;;-1.70;56.37;99253.69;10214932;28;20239;-37
2022/12/11 19:42:51;;;;;;;33.97;22.90;;;;;;;-1.26;55.56;99236.28;10212355;28;20240;-39
2022/12/11 19:47:54;;;;;;;38.77;24.63;;;;;;;-1.55;56.13;99247.28;10211899;28;20231;-39
2022/12/11 19:52:56;;;;;;;35.67;22.43;;;;;;;-2.25;57.25;99298.03;10212146;28;20239;-36
2022/12/11 19:57:59;;;;;;;41.13;24.77;;;;;;;-1.27;56.13;99250.38;10212346;28;20232;-36
2022/12/11 20:03:01;;;;;;;34.77;23.13;;;;;;;-1.22;55.59;99248.22;10206223;28;21285;-39
2022/12/11 20:08:03;;;;;;;35.73;23.27;;;;;;;-2.05;56.93;99287.84;10213956;28;20249;-38
2022/12/11 20:13:24;;;;;;;39.20;25.03;;;;;;;-1.39;56.69;99257.41;10194583;28;20232;-37
2022/12/11 20:18:26;;;;;;;39.40;24.70;;;;;;;-1.51;56.55;99271.50;10220044;28;20250;-39
2022/12/11 20:23:28;;;;;;;42.03;25.47;;;;;;;-1.10;54.78;99233.28;10218963;28;20251;-37
2022/12/11 20:28:30;;;;;;;36.97;23.50;;;;;;;-1.26;56.09;99254.66;10218696;28;20274;-36
2022/12/11 20:33:32;;;;;;;38.87;24.63;;;;;;;-0.07;53.14;99211.72;10213226;28;20239;-38
2022/12/11 20:38:36;;;;;;;35.80;24.10;;;;;;;-0.65;53.85;99234.97;10219743;28;20592;-41
2022/12/11 20:43:38;;;;;;;40.90;25.73;;;;;;;0.04;52.71;99216.09;10216310;28;20728;-37
2022/12/11 20:48:42;;;;;;;50.40;33.57;;;;;;;0.10;52.67;99227.88;10220561;28;20697;-38
2022/12/11 20:53:44;;;;;;;45.87;29.87;;;;;;;-0.33;53.43;99257.81;10226653;28;20243;-37
2022/12/11 20:58:46;;;;;;;39.03;24.83;;;;;;;-0.52;53.67;99277.72;10218892;28;20614;-41
2022/12/11 21:03:48;;;;;;;37.07;23.77;;;;;;;-0.35;54.27;99264.97;10218482;28;20247;-36
2022/12/11 21:08:49;;;;;;;32.23;20.67;;;;;;;-3.24;59.20;99361.78;10223308;28;20247;-38
2022/12/11 21:13:52;;;;;;;35.90;22.63;;;;;;;-0.36;54.26;99243.09;10219701;28;21291;-38
2022/12/11 21:18:55;;;;;;;36.77;22.33;;;;;;;-1.58;56.87;99328.00;10221809;28;20246;-39
2022/12/11 21:23:57;;;;;;;32.37;21.93;;;;;;;-0.11;54.15;99230.56;10219758;28;20251;-36
2022/12/11 21:28:59;;;;;;;34.87;21.73;;;;;;;-1.51;55.97;99316.13;10218281;28;20698;-37
2022/12/11 21:34:01;;;;;;;32.17;20.83;;;;;;;-0.48;54.50;99259.91;10228735;28;20245;-37
2022/12/11 21:39:03;;;;;;;31.47;20.83;;;;;;;-1.49;55.78;99316.00;10225087;28;20580;-37
2022/12/11 21:44:05;;;;;;;30.80;21.47;;;;;;;-1.38;55.54;99315.97;10227096;28;20287;-39
2022/12/11 21:49:26;;;;;;;31.93;18.97;;;;;;;-0.77;55.23;99273.56;10223326;28;20256;-39
2022/12/11 21:54:28;;;;;;;32.70;20.43;;;;;;;-1.42;55.16;99331.13;10227108;28;20249;-38
2022/12/11 21:59:30;;;;;;;35.03;20.30;;;;;;;-1.03;55.26;99307.16;10225085;28;20250;-37
2022/12/11 22:04:32;;;;;;;27.07;18.30;;;;;;;-1.74;56.11;99354.59;10218010;28;20266;-37
2022/12/11 22:09:34;;;;;;;29.67;17.60;;;;;;;-2.96;58.08;99389.56;10226084;28;20609;-37
2022/12/11 22:14:35;;;;;;;29.67;17.40;;;;;;;-1.24;55.58;99323.66;10219116;28;20242;-37
2022/12/11 22:19:37;;;;;;;26.73;16.80;;;;;;;-1.09;53.95;99319.00;10215527;28;20397;-37
2022/12/11 22:24:39;;;;;;;30.53;18.20;;;;;;;-1.14;54.19;99329.03;10221102;28;20258;-38
2022/12/11 22:29:41;;;;;;;32.40;19.97;;;;;;;-1.97;55.54;99367.63;10215662;28;20322;-38
2022/12/11 22:34:43;;;;;;;29.43;18.37;;;;;;;-0.75;53.77;99310.25;10221087;28;20243;-36
2022/12/11 22:39:45;;;;;;;28.10;16.23;;;;;;;-1.54;55.08;99350.47;10222180;28;20719;-37
2022/12/11 22:44:46;;;;;;;29.10;18.00;;;;;;;-3.34;58.84;99377.28;10219288;28;20240;-35
2022/12/11 22:49:48;;;;;;;27.50;17.13;;;;;;;-1.74;56.12;99355.41;10227202;28;20242;-38
2022/12/11 22:54:50;;;;;;;28.60;17.13;;;;;;;-1.50;54.94;99343.19;10211096;28;20252;-37
2022/12/11 22:59:52;;;;;;;26.27;17.77;;;;;;;-0.49;53.09;99287.13;10221154;28;20244;-35
2022/12/11 23:04:53;;;;;;;28.77;18.03;;;;;;;-1.23;54.03;99321.84;10220380;28;20243;-37
2022/12/11 23:09:55;;;;;;;28.33;19.17;;;;;;;-0.58;52.63;99288.69;10224028;28;20231;-35
2022/12/11 23:14:59;;;;;;;30.40;18.27;;;;;;;-1.19;53.90;99332.00;10215257;28;20358;-37
2022/12/11 23:20:02;;;;;;;31.33;19.83;;;;;;;-1.02;53.34;99328.06;10212739;28;22735;-38
2022/12/11 23:25:04;;;;;;;29.27;18.10;;;;;;;-0.02;52.09;99279.75;10216096;28;20324;-36